createdAt,value
2023-02-19T00:01:55.725Z,15.05
2023-02-19T00:04:25.417Z,14.15
2023-02-19T00:06:53.862Z,14.43
2023-02-19T00:09:22.126Z,14.85
2023-02-19T00:11:50.846Z,13.35
2023-02-19T00:14:21.087Z,11.82
2023-02-19T00:16:49.497Z,10.00
2023-02-19T00:19:19.346Z,9.32
2023-02-19T00:21:49.252Z,11.68
2023-02-19T00:24:17.652Z,11.77
2023-02-19T00:26:46.875Z,11.52
2023-02-19T00:29:16.684Z,13.40
2023-02-19T00:31:46.198Z,15.15
2023-02-19T00:34:15.329Z,15.43
2023-02-19T00:36:44.089Z,11.32
2023-02-19T00:39:16.075Z,12.45
2023-02-19T00:41:45.606Z,10.27
2023-02-19T00:44:14.895Z,8.85
2023-02-19T00:46:46.998Z,9.90
2023-02-19T00:49:18.327Z,9.55
2023-02-19T00:51:47.266Z,12.75
2023-02-19T00:54:17.776Z,11.65
2023-02-19T00:56:46.212Z,10.60
2023-02-19T00:59:14.674Z,14.50
2023-02-19T01:01:44.489Z,12.55
2023-02-19T01:04:12.920Z,12.25
2023-02-19T01:06:41.841Z,15.10
2023-02-19T01:09:10.183Z,14.40
2023-02-19T01:11:39.714Z,14.00
2023-02-19T01:14:08.066Z,10.95
2023-02-19T01:16:36.541Z,10.60
2023-02-19T01:19:05.162Z,9.82
2023-02-19T01:21:33.517Z,9.95
2023-02-19T01:24:02.049Z,10.00
2023-02-19T01:26:32.124Z,10.10
2023-02-19T01:29:02.374Z,9.18
2023-02-19T01:31:32.997Z,9.73
2023-02-19T01:34:05.267Z,10.45
2023-02-19T01:36:35.356Z,12.85
2023-02-19T01:39:05.663Z,15.27
2023-02-19T01:41:37.028Z,15.13
2023-02-19T01:44:08.988Z,14.85
2023-02-19T01:46:38.684Z,14.10
2023-02-19T01:49:11.890Z,10.90
2023-02-19T01:51:45.557Z,8.80
2023-02-19T01:54:16.952Z,11.13
2023-02-19T01:56:47.370Z,9.40
2023-02-19T01:59:19.340Z,8.50
2023-02-19T02:01:47.714Z,8.18
2023-02-19T02:04:19.036Z,8.73
2023-02-19T02:06:52.795Z,8.40
2023-02-19T02:09:41.151Z,8.20
2023-02-19T02:12:09.663Z,8.73
2023-02-19T02:14:42.334Z,8.95
2023-02-19T02:17:21.117Z,7.80
2023-02-19T02:20:25.393Z,8.70
2023-02-19T02:23:01.056Z,7.07
2023-02-19T02:25:58.820Z,7.90
2023-02-19T02:28:45.259Z,8.52
2023-02-19T02:31:20.617Z,8.68
2023-02-19T02:33:55.626Z,7.88
2023-02-19T02:36:28.812Z,9.13
2023-02-19T02:38:58.520Z,8.52
2023-02-19T02:41:27.642Z,8.38
2023-02-19T02:43:55.809Z,8.60
2023-02-19T02:46:33.149Z,8.65
2023-02-19T02:49:06.414Z,9.07
2023-02-19T02:51:41.568Z,9.07
2023-02-19T02:54:37.056Z,12.35
2023-02-19T02:57:15.098Z,11.23
2023-02-19T02:59:49.778Z,10.40
2023-02-19T03:02:25.485Z,10.25
2023-02-19T03:05:16.873Z,11.30
2023-02-19T03:07:51.772Z,9.80
2023-02-19T03:10:24.802Z,10.68
2023-02-19T03:13:15.233Z,10.25
2023-02-19T03:16:17.559Z,11.05
2023-02-19T03:19:08.282Z,10.70
2023-02-19T03:21:39.546Z,9.60
2023-02-19T03:24:29.987Z,7.90
2023-02-19T03:27:01.012Z,9.00
2023-02-19T03:29:36.875Z,9.00
2023-02-19T03:32:12.828Z,8.45
2023-02-19T03:34:45.915Z,9.30
2023-02-19T03:37:20.651Z,10.20
2023-02-19T03:39:49.030Z,12.95
2023-02-19T03:42:31.363Z,11.77
2023-02-19T03:45:15.492Z,12.35
2023-02-19T03:47:53.212Z,10.55
2023-02-19T03:50:29.401Z,9.50
2023-02-19T03:53:08.909Z,7.82
2023-02-19T03:55:45.001Z,7.38
2023-02-19T03:58:19.691Z,7.30
2023-02-19T04:00:55.342Z,6.32
2023-02-19T04:03:30.508Z,6.90
2023-02-19T04:06:03.888Z,7.75
2023-02-19T04:08:36.001Z,9.85
2023-02-19T04:11:07.406Z,10.32
2023-02-19T04:13:43.271Z,8.38
2023-02-19T04:16:16.588Z,6.80
2023-02-19T04:18:48.559Z,7.53
2023-02-19T04:21:19.969Z,6.53
2023-02-19T04:23:48.738Z,6.68
2023-02-19T04:26:18.674Z,6.50
2023-02-19T04:28:47.945Z,6.55
2023-02-19T04:31:16.389Z,6.53
2023-02-19T04:33:44.600Z,6.30
2023-02-19T04:36:13.062Z,7.13
2023-02-19T04:38:42.588Z,6.47
2023-02-19T04:41:11.195Z,5.68
2023-02-19T04:43:39.562Z,5.65
2023-02-19T04:46:07.879Z,6.45
2023-02-19T04:48:36.078Z,6.38
2023-02-19T04:51:07.256Z,6.30
2023-02-19T04:53:35.974Z,6.57
2023-02-19T04:56:10.885Z,6.15
2023-02-19T04:58:39.634Z,5.60
2023-02-19T05:01:08.463Z,4.65
2023-02-19T05:03:37.250Z,5.57
2023-02-19T05:06:06.362Z,5.95
2023-02-19T05:08:34.540Z,5.10
2023-02-19T05:11:04.256Z,5.88
2023-02-19T05:13:34.388Z,6.30
2023-02-19T05:16:04.975Z,10.48
2023-02-19T05:18:34.590Z,11.75
2023-02-19T05:21:03.201Z,13.90
2023-02-19T05:23:31.415Z,13.25
2023-02-19T05:25:59.726Z,14.38
2023-02-19T05:28:29.675Z,13.02
2023-02-19T05:30:59.376Z,13.32
2023-02-19T05:33:27.693Z,14.23
2023-02-19T05:35:56.682Z,13.32
2023-02-19T05:38:25.411Z,10.63
2023-02-19T05:40:53.648Z,10.43
2023-02-19T05:43:21.941Z,13.65
2023-02-19T05:45:50.164Z,14.20
2023-02-19T05:48:19.826Z,9.77
2023-02-19T05:50:48.017Z,13.75
2023-02-19T05:53:16.244Z,10.80
2023-02-19T05:55:44.417Z,9.82
2023-02-19T05:58:12.731Z,8.65
2023-02-19T06:00:40.891Z,8.48
2023-02-19T06:03:09.132Z,8.50
2023-02-19T06:05:38.657Z,9.25
2023-02-19T06:08:06.906Z,7.70
2023-02-19T06:10:36.638Z,7.63
2023-02-19T06:13:04.830Z,7.82
2023-02-19T06:15:32.963Z,8.15
2023-02-19T06:18:01.696Z,8.20
2023-02-19T06:20:30.288Z,8.45
2023-02-19T06:22:59.980Z,7.63
2023-02-19T06:25:28.139Z,9.10
2023-02-19T06:27:56.370Z,8.95
2023-02-19T06:30:24.779Z,8.38
2023-02-19T06:32:54.105Z,7.60
2023-02-19T06:35:22.464Z,10.00
2023-02-19T06:37:51.098Z,9.00
2023-02-19T06:40:20.792Z,8.75
2023-02-19T06:42:49.011Z,8.90
2023-02-19T06:45:17.377Z,9.35
2023-02-19T06:47:45.641Z,9.25
2023-02-19T06:50:14.069Z,8.88
2023-02-19T06:52:42.347Z,8.68
2023-02-19T06:55:10.844Z,8.60
2023-02-19T06:57:40.520Z,6.63
2023-02-19T07:00:10.235Z,7.72
2023-02-19T07:02:38.520Z,8.38
2023-02-19T07:05:07.417Z,8.13
2023-02-19T07:07:35.670Z,8.57
2023-02-19T07:10:03.901Z,8.43
2023-02-19T07:12:32.256Z,9.10
2023-02-19T07:15:02.335Z,9.35
2023-02-19T07:17:30.637Z,9.70
2023-02-19T07:19:58.868Z,10.60
2023-02-19T07:22:27.253Z,9.45
2023-02-19T07:24:55.448Z,8.95
2023-02-19T07:27:23.797Z,9.20
2023-02-19T07:29:52.427Z,8.52
2023-02-19T07:32:22.120Z,9.17
2023-02-19T07:34:50.522Z,9.13
2023-02-19T07:37:18.813Z,10.43
2023-02-19T07:39:47.270Z,9.60
2023-02-19T07:42:15.505Z,10.57
2023-02-19T07:44:43.743Z,9.73
2023-02-19T07:47:11.993Z,8.93
2023-02-19T07:49:41.712Z,10.37
2023-02-19T07:52:09.911Z,10.30
2023-02-19T07:54:38.029Z,10.60
2023-02-19T07:57:06.249Z,9.50
2023-02-19T07:59:36.124Z,10.07
2023-02-19T08:02:21.554Z,9.00
2023-02-19T08:04:51.131Z,8.40
2023-02-19T08:07:19.525Z,7.40
2023-02-19T08:10:07.866Z,6.83
2023-02-19T08:12:53.978Z,5.90
2023-02-19T08:15:22.570Z,6.47
2023-02-19T08:17:50.821Z,6.63
2023-02-19T08:20:20.475Z,6.17
2023-02-19T08:22:48.682Z,6.53
2023-02-19T08:25:16.986Z,6.00
2023-02-19T08:27:46.013Z,6.87
2023-02-19T08:30:14.475Z,7.10
2023-02-19T08:32:42.819Z,6.00
2023-02-19T08:35:11.070Z,6.63
2023-02-19T08:37:40.716Z,5.97
2023-02-19T08:40:09.643Z,6.37
2023-02-19T08:42:38.078Z,6.70
2023-02-19T08:45:06.849Z,6.80
2023-02-19T08:47:36.748Z,7.07
2023-02-19T08:50:05.570Z,6.80
2023-02-19T08:52:34.480Z,6.60
2023-02-19T08:55:04.474Z,6.20
2023-02-19T08:57:33.214Z,8.40
2023-02-19T09:00:01.586Z,9.47
2023-02-19T09:02:30.229Z,18.53
2023-02-19T09:04:58.554Z,6.70
2023-02-19T09:07:26.670Z,7.10
2023-02-19T09:09:55.059Z,5.47
2023-02-19T09:12:24.578Z,5.57
2023-02-19T09:14:52.881Z,6.40
2023-02-19T09:17:21.121Z,4.47
2023-02-19T09:19:50.845Z,5.90
2023-02-19T09:22:19.257Z,4.50
2023-02-19T09:24:47.506Z,4.90
2023-02-19T09:27:17.887Z,5.50
2023-02-19T09:29:47.942Z,4.77
2023-02-19T09:32:18.726Z,5.23
2023-02-19T09:34:47.505Z,4.30
2023-02-19T09:37:15.698Z,4.53
2023-02-19T09:39:43.869Z,5.43
2023-02-19T09:42:16.652Z,7.03
2023-02-19T09:44:49.306Z,6.87
2023-02-19T09:47:19.809Z,6.53
2023-02-19T09:49:52.625Z,6.23
2023-02-19T09:52:29.609Z,4.60
2023-02-19T09:55:02.275Z,4.70
2023-02-19T09:57:33.546Z,4.20
2023-02-19T10:00:08.027Z,5.50
2023-02-19T10:02:38.216Z,5.37
2023-02-19T10:05:13.731Z,5.30
2023-02-19T10:07:46.464Z,4.67
2023-02-19T10:10:29.356Z,5.40
2023-02-19T10:13:10.585Z,4.53
2023-02-19T10:15:46.181Z,6.27
2023-02-19T10:18:17.618Z,7.70
2023-02-19T10:20:46.772Z,5.40
2023-02-19T10:23:16.869Z,7.30
2023-02-19T10:25:48.284Z,5.70
2023-02-19T10:28:19.283Z,5.30
2023-02-19T10:30:54.248Z,5.67
2023-02-19T10:33:23.701Z,17.10
2023-02-19T10:35:57.521Z,5.10
2023-02-19T10:38:29.673Z,21.50
2023-02-19T10:41:02.058Z,5.73
2023-02-19T10:43:34.127Z,5.30
2023-02-19T10:46:07.720Z,6.73
2023-02-19T10:48:39.558Z,6.00
2023-02-19T10:51:10.686Z,4.87
2023-02-19T10:53:47.152Z,5.10
2023-02-19T10:56:23.656Z,6.77
2023-02-19T10:58:52.501Z,10.20
2023-02-19T11:01:23.770Z,8.60
2023-02-19T11:03:53.866Z,6.70
2023-02-19T11:06:27.124Z,12.63
2023-02-19T11:08:58.498Z,7.90
2023-02-19T11:11:36.694Z,7.27
2023-02-19T11:14:13.649Z,8.63
2023-02-19T11:16:46.133Z,11.10
2023-02-19T11:19:27.382Z,7.47
2023-02-19T11:21:56.825Z,6.40
2023-02-19T11:24:31.482Z,6.40
2023-02-19T11:27:00.282Z,7.20
2023-02-19T11:29:34.670Z,6.33
2023-02-19T11:32:24.202Z,6.50
2023-02-19T11:34:52.740Z,5.93
2023-02-19T11:37:22.428Z,4.90
2023-02-19T11:39:52.580Z,5.47
2023-02-19T11:42:43.920Z,4.30
2023-02-19T11:45:30.074Z,5.30
2023-02-19T11:48:25.852Z,5.27
2023-02-19T11:51:06.827Z,4.80
2023-02-19T11:53:37.885Z,9.53
2023-02-19T11:56:17.629Z,4.47
2023-02-19T11:59:19.685Z,10.87
2023-02-19T12:02:19.549Z,9.27
2023-02-19T12:05:13.791Z,4.77
2023-02-19T12:08:08.217Z,5.73
2023-02-19T12:10:47.214Z,7.20
2023-02-19T12:13:24.820Z,6.17
2023-02-19T12:16:15.388Z,10.13
2023-02-19T12:19:05.141Z,7.10
2023-02-19T12:21:54.365Z,4.67
2023-02-19T12:24:49.059Z,5.00
2023-02-19T12:27:26.099Z,3.90
2023-02-19T12:30:17.272Z,9.50
2023-02-19T12:33:11.741Z,4.87
2023-02-19T12:36:00.773Z,4.50
2023-02-19T12:38:35.210Z,4.10
2023-02-19T12:41:28.419Z,4.50
2023-02-19T12:44:01.799Z,4.87
2023-02-19T12:46:34.357Z,4.40
2023-02-19T12:49:11.022Z,4.30
2023-02-19T12:51:45.772Z,4.30
2023-02-19T12:54:23.862Z,4.13
2023-02-19T12:56:58.842Z,4.10
2023-02-19T12:59:34.221Z,4.03
2023-02-19T13:02:11.819Z,3.87
2023-02-19T13:04:46.667Z,4.50
2023-02-19T13:07:18.516Z,4.50
2023-02-19T13:09:52.458Z,4.10
2023-02-19T13:12:24.683Z,6.97
2023-02-19T13:14:58.516Z,7.47
2023-02-19T13:17:33.130Z,11.23
2023-02-19T13:20:06.547Z,21.47
2023-02-19T13:22:58.326Z,9.87
2023-02-19T13:25:42.459Z,21.10
2023-02-19T13:28:28.038Z,6.07
2023-02-19T13:31:22.687Z,5.30
2023-02-19T13:34:03.716Z,5.03
2023-02-19T13:36:32.925Z,4.37
2023-02-19T13:39:01.686Z,4.80
2023-02-19T13:41:33.198Z,4.93
2023-02-19T13:44:04.508Z,4.03
2023-02-19T13:46:39.859Z,5.20
2023-02-19T13:49:42.437Z,4.50
2023-02-19T13:52:38.273Z,6.03
2023-02-19T13:55:44.284Z,4.53
2023-02-19T13:58:55.413Z,4.60
2023-02-19T14:01:56.679Z,4.43
2023-02-19T14:04:41.261Z,4.27
2023-02-19T14:07:34.340Z,4.57
2023-02-19T14:10:02.955Z,5.20
2023-02-19T14:12:36.085Z,6.20
2023-02-19T14:15:44.106Z,8.37
2023-02-19T14:18:43.889Z,6.83
2023-02-19T14:21:26.123Z,7.43
2023-02-19T14:23:57.139Z,4.90
2023-02-19T14:26:26.578Z,4.80
2023-02-19T14:28:55.253Z,4.33
2023-02-19T14:31:31.961Z,4.83
2023-02-19T14:34:03.404Z,6.20
2023-02-19T14:36:39.779Z,5.70
2023-02-19T14:39:14.192Z,5.43
2023-02-19T14:41:45.253Z,5.40
2023-02-19T14:44:18.251Z,4.97
2023-02-19T14:46:52.934Z,5.53
2023-02-19T14:49:27.035Z,5.50
2023-02-19T14:52:00.580Z,4.83
2023-02-19T14:54:40.816Z,5.60
2023-02-19T14:57:15.725Z,5.90
2023-02-19T14:59:54.428Z,6.20
2023-02-19T15:02:24.051Z,6.70
2023-02-19T15:04:52.705Z,6.07
2023-02-19T15:07:26.205Z,6.50
2023-02-19T15:09:58.652Z,6.20
2023-02-19T15:12:30.149Z,7.13
2023-02-19T15:15:03.080Z,6.33
2023-02-19T15:17:33.720Z,6.60
2023-02-19T15:20:06.464Z,7.20
2023-02-19T15:22:36.271Z,7.27
2023-02-19T15:25:06.384Z,7.20
2023-02-19T15:27:35.591Z,7.33
2023-02-19T15:30:04.145Z,6.20
2023-02-19T15:32:33.096Z,7.00
2023-02-19T15:35:03.024Z,7.50
2023-02-19T15:37:36.944Z,7.23
2023-02-19T15:40:09.172Z,7.63
2023-02-19T15:42:38.673Z,7.20
2023-02-19T15:45:15.790Z,7.60
2023-02-19T15:47:49.246Z,7.80
2023-02-19T15:50:20.067Z,7.20
2023-02-19T15:52:54.845Z,7.67
2023-02-19T15:55:33.389Z,8.27
2023-02-19T15:58:08.652Z,9.27
2023-02-19T16:00:42.725Z,10.30
2023-02-19T16:03:20.066Z,9.17
2023-02-19T16:05:58.747Z,9.30
2023-02-19T16:08:31.826Z,8.00
2023-02-19T16:11:01.762Z,9.50
2023-02-19T16:13:31.746Z,8.00
2023-02-19T16:16:05.005Z,8.67
2023-02-19T16:18:35.287Z,8.50
2023-02-19T16:21:09.328Z,7.07
2023-02-19T16:23:43.350Z,7.80
2023-02-19T16:26:12.219Z,7.70
2023-02-19T16:28:42.224Z,7.50
2023-02-19T16:31:13.694Z,9.50
2023-02-19T16:33:43.333Z,8.60
2023-02-19T16:36:27.480Z,8.80
2023-02-19T16:39:19.622Z,8.20
2023-02-19T16:42:19.399Z,8.17
2023-02-19T16:44:48.879Z,7.93
2023-02-19T16:47:27.462Z,7.93
2023-02-19T16:49:56.646Z,8.80
2023-02-19T16:52:24.850Z,7.93
2023-02-19T16:54:54.520Z,9.27
2023-02-19T16:57:22.790Z,7.60
2023-02-19T16:59:50.968Z,8.37
2023-02-19T17:02:23.558Z,7.93
2023-02-19T17:04:55.224Z,8.63
2023-02-19T17:07:23.739Z,7.83
2023-02-19T17:09:52.668Z,8.37
2023-02-19T17:12:24.065Z,8.27
2023-02-19T17:14:52.265Z,7.60
2023-02-19T17:17:20.506Z,7.13
2023-02-19T17:19:48.764Z,8.70
2023-02-19T17:22:17.899Z,8.90
2023-02-19T17:24:46.532Z,8.30
2023-02-19T17:27:15.705Z,7.27
2023-02-19T17:29:45.341Z,6.90
2023-02-19T17:32:14.569Z,6.90
2023-02-19T17:34:42.957Z,7.03
2023-02-19T17:37:11.252Z,7.70
2023-02-19T17:39:39.525Z,7.20
2023-02-19T17:42:07.815Z,8.50
2023-02-19T17:44:36.101Z,8.60
2023-02-19T17:47:05.831Z,8.48
2023-02-19T17:49:34.000Z,7.63
2023-02-19T17:52:02.220Z,7.85
2023-02-19T17:54:30.561Z,8.70
2023-02-19T17:56:58.854Z,8.63
2023-02-19T17:59:27.020Z,7.72
2023-02-19T18:01:55.232Z,8.02
2023-02-19T18:04:24.902Z,8.32
2023-02-19T18:06:53.974Z,8.50
2023-02-19T18:09:23.052Z,9.00
2023-02-19T18:11:51.523Z,11.30
2023-02-19T18:14:19.701Z,8.40
2023-02-19T18:16:50.244Z,10.27
2023-02-19T18:19:19.261Z,8.45
2023-02-19T18:21:48.821Z,8.65
2023-02-19T18:24:17.084Z,7.70
2023-02-19T18:26:45.820Z,8.50
2023-02-19T18:29:14.151Z,8.00
2023-02-19T18:31:42.486Z,10.55
2023-02-19T18:34:18.411Z,8.80
2023-02-19T18:36:49.880Z,8.90
2023-02-19T18:39:17.976Z,7.80
2023-02-19T18:41:48.373Z,7.00
2023-02-19T18:44:20.163Z,8.57
2023-02-19T18:46:48.689Z,8.85
2023-02-19T18:49:17.529Z,7.90
2023-02-19T18:51:46.972Z,7.18
2023-02-19T18:54:16.717Z,7.55
2023-02-19T18:56:46.468Z,7.15
2023-02-19T18:59:14.966Z,7.22
2023-02-19T19:01:43.355Z,8.02
2023-02-19T19:04:11.940Z,6.97
2023-02-19T19:06:40.269Z,7.25
2023-02-19T19:09:08.762Z,8.70
2023-02-19T19:11:38.508Z,8.10
2023-02-19T19:14:06.640Z,7.38
2023-02-19T19:16:35.409Z,8.00
2023-02-19T19:19:03.780Z,8.38
2023-02-19T19:21:32.102Z,9.65
2023-02-19T19:24:00.431Z,7.78
2023-02-19T19:26:28.780Z,9.60
2023-02-19T19:28:58.519Z,8.40
2023-02-19T19:31:26.914Z,8.23
2023-02-19T19:33:55.150Z,8.45
2023-02-19T19:36:24.088Z,8.50
2023-02-19T19:38:53.125Z,8.68
2023-02-19T19:41:22.483Z,7.30
2023-02-19T19:43:50.820Z,8.93
2023-02-19T19:46:20.832Z,7.28
2023-02-19T19:48:50.010Z,7.68
2023-02-19T19:51:18.593Z,7.03
2023-02-19T19:53:48.813Z,7.57
2023-02-19T19:56:17.779Z,7.05
2023-02-19T19:58:45.980Z,7.43
2023-02-19T20:01:15.159Z,8.55
2023-02-19T20:03:44.823Z,8.07
2023-02-19T20:06:13.104Z,7.53
2023-02-19T20:08:41.360Z,8.20
2023-02-19T20:11:09.827Z,8.73
2023-02-19T20:13:38.260Z,9.13
2023-02-19T20:16:10.768Z,8.77
2023-02-19T20:18:39.042Z,8.50
2023-02-19T20:21:11.130Z,9.07
2023-02-19T20:23:40.376Z,9.90
2023-02-19T20:26:09.084Z,9.50
2023-02-19T20:28:37.270Z,8.90
2023-02-19T20:31:05.966Z,8.70
2023-02-19T20:33:34.183Z,9.27
2023-02-19T20:36:02.410Z,9.68
2023-02-19T20:38:32.002Z,9.73
2023-02-19T20:41:00.377Z,9.00
2023-02-19T20:43:28.678Z,9.57
2023-02-19T20:45:57.142Z,11.23
2023-02-19T20:48:25.326Z,9.88
2023-02-19T20:50:59.209Z,10.50
2023-02-19T20:53:28.638Z,9.18
2023-02-19T20:55:58.666Z,9.63
2023-02-19T20:58:27.384Z,10.15
2023-02-19T21:00:55.881Z,10.40
2023-02-19T21:03:24.192Z,10.13
2023-02-19T21:05:52.406Z,9.77
2023-02-19T21:08:20.645Z,9.15
2023-02-19T21:10:48.761Z,9.23
2023-02-19T21:13:18.438Z,10.25
2023-02-19T21:15:46.878Z,10.70
2023-02-19T21:18:16.103Z,9.15
2023-02-19T21:20:44.213Z,10.10
2023-02-19T21:23:12.579Z,9.75
2023-02-19T21:25:40.802Z,9.45
2023-02-19T21:28:10.893Z,9.88
2023-02-19T21:30:40.557Z,9.93
2023-02-19T21:33:08.903Z,9.95
2023-02-19T21:35:37.051Z,9.30
2023-02-19T21:38:05.294Z,8.60
2023-02-19T21:40:34.172Z,9.77
2023-02-19T21:43:02.606Z,8.95
2023-02-19T21:45:30.828Z,11.18
2023-02-19T21:48:00.561Z,9.18
2023-02-19T21:50:28.752Z,9.48
2023-02-19T21:52:56.955Z,8.73
2023-02-19T21:55:25.131Z,8.32
2023-02-19T21:57:54.127Z,9.95
2023-02-19T22:00:22.924Z,10.02
2023-02-19T22:02:51.473Z,9.95
2023-02-19T22:05:21.294Z,9.85
2023-02-19T22:07:50.204Z,9.40
2023-02-19T22:10:18.862Z,10.18
2023-02-19T22:12:48.133Z,9.90
2023-02-19T22:15:16.518Z,10.05
2023-02-19T22:17:45.843Z,9.23
2023-02-19T22:20:14.282Z,10.48
2023-02-19T22:22:44.067Z,9.32
2023-02-19T22:25:12.223Z,8.70
2023-02-19T22:27:40.476Z,9.27
2023-02-19T22:30:09.825Z,8.38
2023-02-19T22:32:38.126Z,9.73
2023-02-19T22:35:06.765Z,7.70
2023-02-19T22:37:35.420Z,9.70
2023-02-19T22:40:05.279Z,8.77
2023-02-19T22:42:35.915Z,9.30
2023-02-19T22:45:04.458Z,10.35
2023-02-19T22:47:32.720Z,8.57
2023-02-19T22:50:00.909Z,9.35
2023-02-19T22:52:29.073Z,9.65
2023-02-19T22:54:57.621Z,9.75
2023-02-19T22:57:28.328Z,9.65
2023-02-19T22:59:56.510Z,9.10
2023-02-19T23:02:24.827Z,9.52
2023-02-19T23:04:53.000Z,8.75
2023-02-19T23:07:21.318Z,9.35
2023-02-19T23:09:49.552Z,10.00
2023-02-19T23:12:18.277Z,10.35
2023-02-19T23:14:48.767Z,9.00
2023-02-19T23:17:16.998Z,9.70
2023-02-19T23:19:45.246Z,9.23
2023-02-19T23:22:13.557Z,9.80
2023-02-19T23:24:41.774Z,10.50
2023-02-19T23:27:10.047Z,9.27
2023-02-19T23:29:38.294Z,9.75
2023-02-19T23:32:08.181Z,8.35
2023-02-19T23:34:36.416Z,9.32
2023-02-19T23:37:05.647Z,9.63
2023-02-19T23:39:33.907Z,10.40
2023-02-19T23:42:02.184Z,10.05
2023-02-19T23:44:30.495Z,9.95
2023-02-19T23:46:58.760Z,9.88
2023-02-19T23:49:28.387Z,10.02
2023-02-19T23:51:56.525Z,10.45
2023-02-19T23:54:24.723Z,10.25
2023-02-19T23:56:52.951Z,9.57
2023-02-19T23:59:21.126Z,10.57
